Bennett, Iowa
Current Conditions -  °F | °C
As of 10:02 PM on Sunday 21 Dec 2014 (Local Time) from KDVN Reporting Station
Overcast Overcast  
Wind Chill: 25°   Ceiling: 2300
Heat Index: 35°   Visibility: 8mi
Dew Point: 30°   Wind: 17mph
Humidity: 82%   Direction: 160°SSE
Pressure: 29.93"   Gusts: NA
Location:  41.74°N, 90.97°W
Report Text: KDVN 220402Z AUTO 16015KT 8SM BKN023 OVC048 02/M01 A2993 RMK AO2 T00171011
Loading
Personal Weather Stations






























Interactive Weather Map New forecast layout! Learn more

10-Day Weather Forecast

Advertisements
Track Severe Weather on mobile